createdAt,value
2023-03-25T00:00:24.780Z,69.40
2023-03-25T00:02:52.752Z,69.70
2023-03-25T00:05:22.222Z,69.55
2023-03-25T00:07:52.360Z,69.86
2023-03-25T00:10:19.656Z,69.51
2023-03-25T00:12:46.969Z,69.73
2023-03-25T00:15:16.619Z,69.70
2023-03-25T00:17:44.885Z,69.33
2023-03-25T00:20:12.779Z,69.33
2023-03-25T00:22:42.754Z,70.04
2023-03-25T00:25:13.737Z,69.82
2023-03-25T00:27:40.746Z,69.93
2023-03-25T00:30:08.628Z,69.76
2023-03-25T00:32:35.740Z,69.62
2023-03-25T00:35:02.747Z,69.71
2023-03-25T00:37:30.404Z,69.88
2023-03-25T00:39:57.380Z,69.43
2023-03-25T00:42:27.298Z,69.79
2023-03-25T00:44:54.611Z,69.87
2023-03-25T00:47:22.985Z,69.84
2023-03-25T00:49:51.862Z,69.81
2023-03-25T00:52:19.517Z,70.15
2023-03-25T00:54:46.642Z,70.19
2023-03-25T00:57:13.679Z,70.35
2023-03-25T00:59:40.740Z,69.87
2023-03-25T01:02:07.691Z,70.13
2023-03-25T01:04:35.706Z,70.19
2023-03-25T01:07:03.899Z,70.02
2023-03-25T01:09:31.322Z,70.12
2023-03-25T01:11:58.949Z,70.27
2023-03-25T01:14:27.812Z,70.10
2023-03-25T01:16:55.040Z,70.01
2023-03-25T01:19:23.542Z,69.86
2023-03-25T01:21:51.077Z,70.28
2023-03-25T01:24:18.722Z,70.02
2023-03-25T01:26:46.181Z,69.69
2023-03-25T01:29:15.564Z,69.96
2023-03-25T01:31:42.624Z,69.74
2023-03-25T01:34:11.205Z,69.89
2023-03-25T01:36:40.150Z,69.74
2023-03-25T01:39:09.101Z,70.03
2023-03-25T01:41:49.012Z,69.75
2023-03-25T01:44:19.988Z,69.83
2023-03-25T01:46:53.735Z,69.90
2023-03-25T01:49:44.606Z,69.53
2023-03-25T01:52:16.571Z,69.77
2023-03-25T01:54:45.598Z,69.74
2023-03-25T01:57:19.708Z,69.44
2023-03-25T01:59:47.451Z,69.46
2023-03-25T02:02:17.853Z,69.62
2023-03-25T02:05:27.748Z,69.50
2023-03-25T02:07:55.030Z,69.31
2023-03-25T02:10:22.174Z,69.19
2023-03-25T02:12:49.748Z,69.34
2023-03-25T02:15:18.745Z,69.42
2023-03-25T02:17:57.212Z,69.11
2023-03-25T02:21:03.296Z,69.11
2023-03-25T02:24:05.759Z,69.17
2023-03-25T02:26:56.069Z,70.13
2023-03-25T02:29:25.798Z,69.27
2023-03-25T02:32:42.503Z,69.74
2023-03-25T02:35:26.219Z,69.34
2023-03-25T02:38:24.856Z,69.18
2023-03-25T02:40:56.469Z,69.25
2023-03-25T02:43:39.722Z,69.16
2023-03-25T02:46:12.802Z,68.93
2023-03-25T02:48:49.909Z,69.18
2023-03-25T02:51:30.534Z,69.37
2023-03-25T02:54:03.035Z,69.32
2023-03-25T02:56:33.075Z,69.14
2023-03-25T02:59:02.520Z,69.50
2023-03-25T03:01:29.540Z,69.48
2023-03-25T03:03:57.133Z,69.45
2023-03-25T03:06:25.832Z,69.61
2023-03-25T03:09:06.798Z,69.45
2023-03-25T03:11:45.942Z,69.17
2023-03-25T03:14:27.901Z,69.75
2023-03-25T03:17:01.173Z,69.39
2023-03-25T03:19:55.422Z,69.64
2023-03-25T03:22:44.544Z,69.51
2023-03-25T03:25:36.980Z,68.81
2023-03-25T03:28:10.483Z,69.06
2023-03-25T03:30:48.496Z,68.86
2023-03-25T03:33:25.729Z,68.68
2023-03-25T03:35:58.734Z,68.71
2023-03-25T03:38:29.774Z,68.66
2023-03-25T03:41:01.450Z,68.95
2023-03-25T03:43:41.444Z,69.04
2023-03-25T03:46:22.793Z,68.76
2023-03-25T03:48:54.712Z,68.79
2023-03-25T03:51:37.603Z,68.64
2023-03-25T03:54:25.374Z,68.95
2023-03-25T03:57:17.973Z,68.45
2023-03-25T03:59:59.977Z,68.46
2023-03-25T04:02:43.206Z,68.81
2023-03-25T04:05:14.013Z,68.43
2023-03-25T04:08:04.009Z,68.14
2023-03-25T04:10:42.382Z,68.54
2023-03-25T04:13:14.054Z,68.61
2023-03-25T04:15:42.817Z,68.21
2023-03-25T04:18:09.822Z,68.20
2023-03-25T04:20:36.985Z,68.30
2023-03-25T04:23:09.934Z,68.31
2023-03-25T04:25:36.981Z,67.93
2023-03-25T04:28:04.085Z,67.91
2023-03-25T04:30:31.206Z,67.73
2023-03-25T04:32:58.214Z,68.09
2023-03-25T04:35:26.018Z,68.01
2023-03-25T04:37:57.637Z,68.53
2023-03-25T04:40:25.990Z,68.05
2023-03-25T04:42:53.462Z,67.83
2023-03-25T04:45:21.767Z,67.79
2023-03-25T04:47:49.968Z,67.54
2023-03-25T04:50:29.565Z,67.79
2023-03-25T04:52:58.332Z,67.21
2023-03-25T04:55:25.956Z,67.33
2023-03-25T04:57:54.692Z,67.24
2023-03-25T05:00:24.667Z,67.27
2023-03-25T05:02:54.385Z,67.24
2023-03-25T05:05:24.493Z,67.58
2023-03-25T05:07:54.075Z,67.40
2023-03-25T05:10:24.012Z,67.24
2023-03-25T05:12:57.768Z,67.54
2023-03-25T05:15:24.710Z,66.88
2023-03-25T05:17:51.679Z,67.49
2023-03-25T05:20:19.196Z,67.17
2023-03-25T05:22:46.158Z,67.19
2023-03-25T05:25:13.120Z,67.12
2023-03-25T05:27:40.286Z,66.90
2023-03-25T05:30:08.226Z,67.00
2023-03-25T05:32:35.348Z,66.89
2023-03-25T05:35:03.639Z,66.97
2023-03-25T05:37:30.905Z,66.57
2023-03-25T05:39:58.063Z,66.47
2023-03-25T05:42:25.729Z,66.47
2023-03-25T05:44:53.840Z,66.25
2023-03-25T05:47:25.460Z,66.31
2023-03-25T05:49:54.037Z,66.23
2023-03-25T05:52:24.780Z,65.92
2023-03-25T05:54:52.142Z,66.30
2023-03-25T05:57:19.173Z,66.23
2023-03-25T05:59:46.465Z,65.45
2023-03-25T06:02:16.124Z,65.42
2023-03-25T06:04:43.791Z,65.52
2023-03-25T06:07:14.798Z,65.92
2023-03-25T06:09:46.801Z,65.95
2023-03-25T06:12:20.062Z,66.26
2023-03-25T06:14:48.217Z,65.81
2023-03-25T06:17:19.067Z,65.89
2023-03-25T06:19:46.116Z,65.77
2023-03-25T06:22:13.085Z,64.99
2023-03-25T06:24:41.505Z,64.84
2023-03-25T06:27:18.202Z,64.59
2023-03-25T06:29:47.368Z,63.67
2023-03-25T06:32:15.946Z,63.67
2023-03-25T06:34:43.559Z,63.21
2023-03-25T06:37:10.770Z,63.40
2023-03-25T06:39:38.103Z,63.20
2023-03-25T06:42:13.173Z,63.54
2023-03-25T06:45:07.734Z,63.00
2023-03-25T06:47:42.176Z,63.53
2023-03-25T06:50:09.579Z,63.87
2023-03-25T06:52:37.265Z,63.51
2023-03-25T06:55:04.758Z,63.65
2023-03-25T06:57:31.741Z,63.63
2023-03-25T06:59:58.785Z,63.88
2023-03-25T07:02:25.812Z,64.14
2023-03-25T07:04:52.900Z,64.75
2023-03-25T07:07:19.967Z,64.71
2023-03-25T07:09:51.418Z,65.01
2023-03-25T07:12:18.498Z,65.31
2023-03-25T07:14:54.262Z,66.46
2023-03-25T07:17:40.754Z,66.27
2023-03-25T07:20:26.552Z,66.29
2023-03-25T07:22:56.698Z,66.97
2023-03-25T07:25:23.751Z,67.41
2023-03-25T07:27:51.812Z,67.01
2023-03-25T07:30:19.955Z,67.17
2023-03-25T07:32:47.156Z,67.57
2023-03-25T07:35:14.211Z,67.44
2023-03-25T07:37:41.223Z,67.78
2023-03-25T07:40:08.837Z,68.19
2023-03-25T07:42:37.608Z,68.31
2023-03-25T07:48:02.300Z,68.65
2023-03-25T07:50:29.406Z,68.24
2023-03-25T07:52:56.514Z,68.83
2023-03-25T07:55:23.562Z,68.77
2023-03-25T07:57:50.588Z,68.77
2023-03-25T08:00:17.680Z,69.18
2023-03-25T08:02:44.731Z,69.33
2023-03-25T08:05:12.554Z,69.26
2023-03-25T08:07:39.872Z,69.47
2023-03-25T08:10:07.504Z,69.60
2023-03-25T08:12:34.458Z,69.55
2023-03-25T08:15:01.519Z,69.91
2023-03-25T08:17:29.247Z,70.18
2023-03-25T08:19:56.508Z,69.72
2023-03-25T08:22:45.025Z,69.86
2023-03-25T08:25:12.255Z,69.28
2023-03-25T08:28:35.319Z,70.12
2023-03-25T08:31:08.982Z,69.80
2023-03-25T08:33:41.138Z,69.24
2023-03-25T08:36:20.036Z,69.62
2023-03-25T08:38:47.465Z,69.88
2023-03-25T08:41:14.870Z,70.07
2023-03-25T08:43:43.542Z,70.38
2023-03-25T08:46:11.745Z,70.92
2023-03-25T08:48:39.209Z,70.39
2023-03-25T08:51:25.240Z,70.82
2023-03-25T08:54:11.172Z,70.64
2023-03-25T08:56:56.605Z,71.07
2023-03-25T08:59:42.355Z,71.26
2023-03-25T09:02:13.453Z,70.84
2023-03-25T09:04:41.015Z,71.24
2023-03-25T09:07:12.619Z,70.96
2023-03-25T09:09:42.785Z,71.57
2023-03-25T09:12:10.333Z,71.48
2023-03-25T09:14:37.657Z,71.28
2023-03-25T09:17:06.519Z,71.70
2023-03-25T09:22:58.719Z,71.81
2023-03-25T09:25:46.353Z,71.79
2023-03-25T09:28:32.129Z,72.06
2023-03-25T09:30:59.314Z,71.82
2023-03-25T09:33:27.621Z,71.78
2023-03-25T09:35:55.194Z,71.49
2023-03-25T09:38:22.617Z,71.40
2023-03-25T09:40:49.689Z,71.29
2023-03-25T09:43:34.973Z,71.89
2023-03-25T09:46:39.274Z,71.44
2023-03-25T09:49:15.063Z,71.13
2023-03-25T09:52:03.071Z,71.34
2023-03-25T09:54:48.757Z,70.89
2023-03-25T09:57:22.763Z,71.37
2023-03-25T09:59:51.592Z,70.79
2023-03-25T10:02:27.890Z,70.85
2023-03-25T10:05:18.618Z,71.29
2023-03-25T10:08:17.908Z,70.91
2023-03-25T10:10:49.303Z,71.18
2023-03-25T10:13:35.190Z,71.06
2023-03-25T10:16:19.826Z,70.93
2023-03-25T10:19:26.948Z,70.68
2023-03-25T10:22:03.377Z,70.47
2023-03-25T10:24:53.652Z,70.27
2023-03-25T10:27:43.313Z,70.54
2023-03-25T10:30:14.202Z,70.32
2023-03-25T10:32:48.445Z,70.52
2023-03-25T10:35:27.459Z,70.15
2023-03-25T10:38:02.035Z,70.01
2023-03-25T10:40:35.167Z,69.78
2023-03-25T10:43:23.555Z,69.74
2023-03-25T10:45:54.844Z,69.93
2023-03-25T10:48:25.666Z,70.03
2023-03-25T10:50:59.103Z,69.44
2023-03-25T10:53:28.048Z,69.05
2023-03-25T11:02:18.808Z,68.61
2023-03-25T11:04:49.370Z,68.29
2023-03-25T11:07:36.261Z,68.10
2023-03-25T11:10:17.588Z,67.95
2023-03-25T11:12:48.488Z,67.66
2023-03-25T11:15:29.605Z,67.63
2023-03-25T11:18:40.222Z,67.72
2023-03-25T11:21:13.870Z,67.54
2023-03-25T11:23:47.119Z,67.28
2023-03-25T11:26:27.273Z,67.28
2023-03-25T11:29:16.915Z,67.44
2023-03-25T11:31:44.261Z,67.34
2023-03-25T11:34:11.471Z,67.40
2023-03-25T11:36:40.737Z,67.31
2023-03-25T11:39:25.298Z,67.51
2023-03-25T11:41:52.654Z,67.30
2023-03-25T11:44:29.281Z,67.58
2023-03-25T11:49:54.577Z,67.62
2023-03-25T11:53:02.032Z,67.71
2023-03-25T11:55:44.046Z,67.77
2023-03-25T12:01:46.653Z,68.02
2023-03-25T12:04:19.731Z,67.96
2023-03-25T12:07:08.769Z,67.68
2023-03-25T12:09:36.918Z,67.85
2023-03-25T12:12:26.013Z,67.78
2023-03-25T12:15:18.232Z,67.78
2023-03-25T12:18:10.077Z,67.67
2023-03-25T12:21:13.594Z,67.62
2023-03-25T12:27:32.341Z,68.09
2023-03-25T12:30:09.913Z,67.69
2023-03-25T12:33:11.931Z,67.90
2023-03-25T12:35:47.452Z,67.68
2023-03-25T12:38:29.575Z,67.59
2023-03-25T12:41:25.771Z,67.35
2023-03-25T12:44:32.901Z,67.51
2023-03-25T12:47:23.279Z,67.44
2023-03-25T12:49:55.900Z,67.74
2023-03-25T12:52:59.895Z,67.67
2023-03-25T12:56:09.952Z,67.51
2023-03-25T12:58:50.155Z,67.23
2023-03-25T13:01:52.874Z,67.54
2023-03-25T13:04:35.771Z,67.62
2023-03-25T13:07:10.478Z,67.45
2023-03-25T13:10:14.846Z,67.46
2023-03-25T13:12:49.776Z,67.68
2023-03-25T13:15:35.217Z,67.56
2023-03-25T13:18:17.130Z,67.63
2023-03-25T13:21:27.920Z,67.75
2023-03-25T13:24:07.328Z,67.30
2023-03-25T13:26:36.285Z,67.16
2023-03-25T13:29:07.093Z,67.24
2023-03-25T13:31:38.100Z,67.17
2023-03-25T13:34:30.218Z,67.00
2023-03-25T13:37:31.871Z,67.00
2023-03-25T13:40:13.645Z,67.11
2023-03-25T13:43:08.752Z,66.83
2023-03-25T13:49:23.277Z,66.42
2023-03-25T13:55:06.700Z,66.32
2023-03-25T13:57:58.136Z,66.26
2023-03-25T14:00:34.109Z,66.34
2023-03-25T14:03:42.883Z,66.02
2023-03-25T14:06:29.612Z,66.02
2023-03-25T14:09:11.377Z,66.11
2023-03-25T14:11:47.490Z,66.04
2023-03-25T14:14:18.348Z,65.86
2023-03-25T14:16:52.267Z,66.25
2023-03-25T14:19:58.418Z,66.13
2023-03-25T14:22:32.013Z,66.30
2023-03-25T14:25:00.305Z,66.05
2023-03-25T14:28:06.063Z,66.02
2023-03-25T14:30:33.822Z,65.92
2023-03-25T14:33:04.037Z,66.00
2023-03-25T14:35:34.161Z,66.30
2023-03-25T14:38:10.198Z,66.29
2023-03-25T14:40:54.657Z,65.88
2023-03-25T14:43:49.130Z,66.03
2023-03-25T14:46:37.596Z,65.79
2023-03-25T14:49:05.920Z,65.77
2023-03-25T14:51:35.020Z,65.68
2023-03-25T14:54:21.630Z,65.99
2023-03-25T15:00:04.385Z,66.09
2023-03-25T15:02:33.659Z,65.79
2023-03-25T15:05:13.859Z,66.10
2023-03-25T15:08:04.969Z,66.22
2023-03-25T15:10:36.642Z,66.28
2023-03-25T15:13:07.631Z,66.01
2023-03-25T15:15:57.586Z,66.53
2023-03-25T15:18:37.288Z,66.28
2023-03-25T15:21:23.117Z,66.35
2023-03-25T15:24:13.432Z,66.67
2023-03-25T15:27:00.032Z,66.47
2023-03-25T15:30:03.087Z,66.72
2023-03-25T15:32:45.411Z,66.81
2023-03-25T15:35:32.682Z,67.26
2023-03-25T15:38:30.621Z,66.88
2023-03-25T15:41:03.663Z,66.80
2023-03-25T15:43:59.649Z,66.58
2023-03-25T15:46:42.683Z,67.00
2023-03-25T15:49:31.489Z,67.11
2023-03-25T15:52:10.944Z,67.45
2023-03-25T15:55:16.225Z,67.02
2023-03-25T15:57:49.264Z,67.17
2023-03-25T16:00:25.462Z,67.16
2023-03-25T16:02:58.517Z,67.07
2023-03-25T16:05:26.549Z,67.46
2023-03-25T16:07:54.111Z,67.68
2023-03-25T16:10:34.297Z,68.07
2023-03-25T16:13:04.476Z,67.85
2023-03-25T16:15:33.981Z,67.80
2023-03-25T16:18:22.176Z,68.00
2023-03-25T16:21:08.469Z,67.98
2023-03-25T16:26:39.174Z,68.52
2023-03-25T16:29:17.740Z,68.27
2023-03-25T16:31:56.556Z,68.42
2023-03-25T16:34:24.487Z,67.97
2023-03-25T16:36:53.075Z,68.46
2023-03-25T16:39:21.540Z,68.73
2023-03-25T16:41:59.442Z,68.77
2023-03-25T16:44:26.822Z,68.62
2023-03-25T16:47:12.398Z,68.43
2023-03-25T16:49:58.136Z,68.73
2023-03-25T16:52:46.317Z,68.85
2023-03-25T16:55:29.972Z,68.64
2023-03-25T16:58:00.139Z,68.64
2023-03-25T17:00:39.524Z,69.38
2023-03-25T17:05:52.340Z,69.18
2023-03-25T17:08:21.486Z,69.15
2023-03-25T17:10:56.045Z,69.49
2023-03-25T17:13:30.551Z,69.89
2023-03-25T17:15:58.155Z,69.15
2023-03-25T17:21:30.440Z,69.75
2023-03-25T17:24:24.014Z,69.45
2023-03-25T17:27:19.944Z,69.06
2023-03-25T17:30:20.876Z,69.73
2023-03-25T17:32:48.438Z,69.44
2023-03-25T17:35:30.642Z,69.22
2023-03-25T17:37:58.141Z,69.09
2023-03-25T17:40:27.139Z,69.12
2023-03-25T17:42:55.538Z,69.33
2023-03-25T17:45:25.668Z,69.05
2023-03-25T17:47:52.710Z,69.54
2023-03-25T17:50:28.503Z,69.60
2023-03-25T17:52:55.479Z,69.21
2023-03-25T17:55:22.884Z,69.45
2023-03-25T17:58:08.391Z,69.25
2023-03-25T18:00:35.971Z,69.56
2023-03-25T18:03:10.505Z,68.80
2023-03-25T18:05:37.492Z,69.39
2023-03-25T18:08:04.624Z,69.46
2023-03-25T18:10:32.664Z,69.07
2023-03-25T18:12:59.631Z,69.12
2023-03-25T18:15:26.727Z,69.17
2023-03-25T18:18:16.801Z,69.27
2023-03-25T18:20:44.491Z,69.52
2023-03-25T18:23:12.976Z,69.38
2023-03-25T18:25:41.100Z,69.56
2023-03-25T18:28:28.770Z,69.58
2023-03-25T18:30:56.779Z,69.37
2023-03-25T18:33:24.452Z,69.56
2023-03-25T18:35:56.713Z,69.38
2023-03-25T18:38:26.421Z,69.22
2023-03-25T18:40:55.081Z,69.62
2023-03-25T18:43:22.875Z,69.45
2023-03-25T18:46:13.193Z,69.58
2023-03-25T18:49:36.189Z,69.51
2023-03-25T18:52:21.478Z,69.39
2023-03-25T18:54:48.429Z,69.76
2023-03-25T18:57:33.716Z,69.50
2023-03-25T19:00:00.823Z,69.76
2023-03-25T19:02:30.968Z,69.66
2023-03-25T19:05:00.968Z,69.59
2023-03-25T19:07:28.858Z,69.36
2023-03-25T19:09:55.805Z,69.55
2023-03-25T19:12:22.920Z,69.84
2023-03-25T19:14:49.913Z,70.01
2023-03-25T19:17:16.925Z,69.63
2023-03-25T19:20:20.960Z,69.94
2023-03-25T19:26:29.005Z,69.86
2023-03-25T19:28:56.113Z,69.77
2023-03-25T19:31:23.178Z,69.84
2023-03-25T19:33:51.475Z,70.11
2023-03-25T19:36:19.660Z,69.87
2023-03-25T19:38:46.749Z,70.08
2023-03-25T19:41:16.363Z,70.12
2023-03-25T19:43:43.787Z,70.28
2023-03-25T19:46:31.836Z,70.38
2023-03-25T19:48:59.020Z,69.94
2023-03-25T19:51:26.033Z,70.28
2023-03-25T19:53:53.042Z,70.56
2023-03-25T19:56:20.072Z,70.33
2023-03-25T19:59:05.487Z,70.70
2023-03-25T20:01:51.422Z,70.03
2023-03-25T20:04:18.594Z,70.33
2023-03-25T20:06:45.547Z,70.63
2023-03-25T20:09:13.352Z,70.44
2023-03-25T20:11:40.329Z,70.36
2023-03-25T20:14:07.300Z,70.69
2023-03-25T20:16:35.000Z,70.65
2023-03-25T20:19:02.492Z,70.34
2023-03-25T20:21:48.342Z,70.58
2023-03-25T20:24:33.766Z,70.19
2023-03-25T20:30:06.187Z,70.39
2023-03-25T20:32:40.482Z,70.38
2023-03-25T20:35:11.309Z,70.59
2023-03-25T20:37:40.036Z,70.89
2023-03-25T20:40:11.731Z,70.25
2023-03-25T20:42:41.444Z,70.82
2023-03-25T20:45:11.095Z,70.62
2023-03-25T20:47:57.325Z,70.54
2023-03-25T20:50:24.833Z,70.69
2023-03-25T20:53:10.838Z,70.37
2023-03-25T20:55:37.915Z,70.62
2023-03-25T20:58:05.952Z,70.87
2023-03-25T21:00:34.321Z,70.47
2023-03-25T21:03:02.057Z,70.34
2023-03-25T21:05:29.317Z,70.83
2023-03-25T21:07:56.277Z,71.06
2023-03-25T21:10:23.530Z,70.91
2023-03-25T21:12:50.573Z,71.27
2023-03-25T21:15:36.475Z,70.90
2023-03-25T21:18:22.098Z,71.05
2023-03-25T21:21:26.155Z,71.64
2023-03-25T21:24:12.490Z,71.42
2023-03-25T21:27:16.824Z,71.51
2023-03-25T21:29:44.253Z,71.27
2023-03-25T21:32:30.681Z,71.54
2023-03-25T21:34:59.790Z,71.38
2023-03-25T21:37:27.556Z,71.56
2023-03-25T21:39:57.520Z,71.53
2023-03-25T21:42:24.579Z,71.45
2023-03-25T21:44:51.561Z,71.76
2023-03-25T21:47:36.965Z,71.76
2023-03-25T21:50:09.762Z,71.70
2023-03-25T21:52:55.810Z,71.30
2023-03-25T21:55:23.068Z,71.56
2023-03-25T21:57:51.533Z,71.43
2023-03-25T22:00:19.645Z,71.76
2023-03-25T22:02:47.429Z,71.98
2023-03-25T22:05:16.371Z,71.70
2023-03-25T22:07:43.754Z,71.73
2023-03-25T22:10:11.259Z,72.05
2023-03-25T22:12:39.405Z,71.55
2023-03-25T22:15:07.104Z,71.87
2023-03-25T22:17:34.121Z,71.99
2023-03-25T22:20:01.233Z,71.87
2023-03-25T22:22:30.217Z,72.15
2023-03-25T22:25:16.131Z,72.07
2023-03-25T22:27:43.121Z,72.21
2023-03-25T22:30:10.749Z,72.53
2023-03-25T22:32:37.824Z,72.16
2023-03-25T22:35:05.442Z,71.95
2023-03-25T22:37:35.000Z,71.95
2023-03-25T22:40:01.992Z,72.08
2023-03-25T22:42:29.777Z,71.57
2023-03-25T22:44:56.714Z,71.79
2023-03-25T22:47:23.683Z,71.80
2023-03-25T22:50:09.043Z,71.95
2023-03-25T22:52:54.723Z,71.41
2023-03-25T22:55:58.796Z,71.32
2023-03-25T22:58:44.727Z,71.21
2023-03-25T23:01:31.087Z,71.82
2023-03-25T23:03:58.178Z,71.98
2023-03-25T23:06:26.584Z,71.74
2023-03-25T23:08:57.994Z,71.94
2023-03-25T23:11:27.560Z,71.73
2023-03-25T23:14:03.691Z,71.89
2023-03-25T23:16:32.266Z,71.47
2023-03-25T23:19:17.630Z,71.69
2023-03-25T23:21:44.770Z,71.66
2023-03-25T23:24:11.880Z,71.73
2023-03-25T23:29:25.418Z,71.70
2023-03-25T23:31:52.402Z,71.88
2023-03-25T23:34:19.396Z,72.01
2023-03-25T23:36:46.875Z,72.21
2023-03-25T23:39:17.174Z,72.01
2023-03-25T23:41:44.286Z,72.21
2023-03-25T23:44:11.537Z,72.34
2023-03-25T23:52:11.453Z,71.96
2023-03-25T23:54:39.849Z,72.10
2023-03-25T23:57:07.118Z,72.04
